»·PEaware :: DAL657 KSLC-KSEA

DAL657 :: KSLC-KSEA

FLIGHT INFORMATION

Flight Status: Arrived
Operator:
Delta Air Lines
More flights by this operator :: More flights under this callsign
Pilot: Joe P. (13940)
Aircraft: BOEING 737-800
(B738)
More flights by this aircraft type
Origin: KSLC Salt Lake City Intl
United States
Destination: KSEA Seattle-Tacoma Intl
United States
More flights between these airports :: More routes between these airports
Route: +CGULL1 TWF BOI OLAAH PDT CHINS4
File this flight plan on PilotEdge
Remarks: RMK / SIMBRIEF / FLYING RW FLIGHT, 1 hour LATE . . .
Altitude:
(Current/Filed)
36,000ft
Speed:
(Current/Filed)
455kts
Departed: 23-Oct-20 10:46 AM
Arrived: 23-Oct-20 12:44 PM
Distance/Time
Traveled:
597nm/1:58
Distance/Time
To Go:
Arrived

Flight Plot

Page will automatically refresh every two minutes.

Flight plan parsing failed; only flown route is shown


Map Options




Map Legend


Flown Route
Filed Route
Departure Airport
Arrival Airport
Navaid (VOR, NDB)
Fix

Horizontal Profiles

Position Reports

Time Latitude Longitude Heading Altitude Ground
Speed
23-Oct-20 09:30 40.788747 -111.981883 99 4235ft 0kts
23-Oct-20 09:31 40.788747 -111.981883 99 4235ft 0kts
23-Oct-20 09:32 40.788747 -111.981883 99 4235ft 0kts
23-Oct-20 09:33 40.788747 -111.981883 99 4235ft 0kts
23-Oct-20 09:34 40.788747 -111.981883 99 4235ft 0kts
23-Oct-20 09:35 40.788747 -111.981883 99 4235ft 0kts
23-Oct-20 09:36 40.788747 -111.981883 99 4235ft 0kts
23-Oct-20 09:37 40.788747 -111.981883 99 4235ft 0kts
23-Oct-20 09:38 40.788747 -111.981883 99 4235ft 0kts
23-Oct-20 09:39 40.788747 -111.981883 99 4235ft 0kts
23-Oct-20 09:40 40.788747 -111.981883 99 4235ft 0kts
23-Oct-20 09:41 40.788747 -111.981883 99 4235ft 0kts
23-Oct-20 09:42 40.788747 -111.981883 99 4235ft 0kts
23-Oct-20 09:43 40.788747 -111.981883 99 4235ft 0kts
23-Oct-20 09:44 40.788747 -111.981883 99 4235ft 0kts
23-Oct-20 09:45 40.788747 -111.981883 99 4235ft 0kts
23-Oct-20 09:46 40.788747 -111.981883 99 4235ft 0kts
23-Oct-20 09:47 40.788747 -111.981883 99 4235ft 0kts
23-Oct-20 09:48 40.788747 -111.981883 99 4235ft 0kts
23-Oct-20 09:49 40.788747 -111.981883 99 4235ft 0kts
23-Oct-20 09:50 40.788747 -111.981883 99 4235ft 0kts
23-Oct-20 09:51 40.788747 -111.981883 99 4235ft 0kts
23-Oct-20 09:52 40.788747 -111.981883 99 4235ft 0kts
23-Oct-20 09:53 40.788747 -111.981883 99 4235ft 0kts
23-Oct-20 09:54 40.788747 -111.981883 99 4235ft 0kts
23-Oct-20 09:55 40.788747 -111.981883 99 4235ft 0kts
23-Oct-20 09:56 40.788747 -111.981883 99 4235ft 0kts
23-Oct-20 09:57 40.788747 -111.981883 99 4235ft 0kts
23-Oct-20 09:58 40.788747 -111.981883 99 4235ft 0kts
23-Oct-20 09:59 40.788747 -111.981883 99 4235ft 0kts
23-Oct-20 10:00 40.788747 -111.981883 99 4235ft 0kts
23-Oct-20 10:01 40.788747 -111.981883 99 4235ft 0kts
23-Oct-20 10:02 40.788747 -111.981883 99 4235ft 0kts
23-Oct-20 10:03 40.788747 -111.981883 99 4235ft 0kts
23-Oct-20 10:04 40.788747 -111.981883 99 4235ft 0kts
23-Oct-20 10:05 40.788747 -111.981883 99 4235ft 0kts
23-Oct-20 10:06 40.788747 -111.981883 99 4235ft 0kts
23-Oct-20 10:07 40.788747 -111.981883 99 4235ft 0kts
23-Oct-20 10:08 40.788747 -111.981883 99 4235ft 0kts
23-Oct-20 10:09 40.788747 -111.981883 99 4235ft 0kts
23-Oct-20 10:10 40.788747 -111.981883 99 4235ft 0kts
23-Oct-20 10:11 40.788747 -111.981883 99 4235ft 0kts
23-Oct-20 10:12 40.788747 -111.981883 99 4235ft 0kts
23-Oct-20 10:13 40.788747 -111.981883 99 4235ft 0kts
23-Oct-20 10:15 40.788747 -111.981883 99 4235ft 0kts
23-Oct-20 10:16 40.788747 -111.981883 99 4235ft 0kts
23-Oct-20 10:17 40.788747 -111.981883 99 4235ft 0kts
23-Oct-20 10:18 40.788747 -111.981883 99 4235ft 0kts
23-Oct-20 10:19 40.788747 -111.981883 99 4235ft 0kts
23-Oct-20 10:20 40.788747 -111.981883 99 4235ft 0kts
23-Oct-20 10:21 40.788747 -111.981883 99 4235ft 0kts
23-Oct-20 10:22 40.788747 -111.981883 99 4235ft 0kts
23-Oct-20 10:23 40.788747 -111.981883 99 4235ft 0kts
23-Oct-20 10:24 40.788747 -111.981883 99 4235ft 0kts
23-Oct-20 10:25 40.788747 -111.981883 99 4235ft 0kts
23-Oct-20 10:26 40.788747 -111.981883 99 4235ft 0kts
23-Oct-20 10:27 40.788747 -111.981883 99 4235ft 0kts
23-Oct-20 10:28 40.788747 -111.981883 99 4235ft 0kts
23-Oct-20 10:29 40.788747 -111.981883 99 4235ft 0kts
23-Oct-20 10:30 40.788747 -111.981883 99 4235ft 0kts
23-Oct-20 10:31 40.788747 -111.981883 99 4235ft 0kts
23-Oct-20 10:31 40.788780 -111.982407 84 4235ft 2kts
23-Oct-20 10:33 40.788557 -111.982922 5 4235ft 0kts
23-Oct-20 10:33 40.788557 -111.982922 5 4235ft 0kts
23-Oct-20 10:35 40.788557 -111.982922 5 4235ft 0kts
23-Oct-20 10:35 40.788558 -111.982922 5 4235ft 0kts
23-Oct-20 10:36 40.788865 -111.982885 5 4235ft 2kts
23-Oct-20 10:37 40.789860 -111.982380 69 4235ft 7kts
23-Oct-20 10:38 40.790276 -111.978809 80 4235ft 6kts
23-Oct-20 10:39 40.790338 -111.978210 83 4235ft 5kts
23-Oct-20 10:40 40.792232 -111.977390 354 4235ft 12kts
23-Oct-20 10:41 40.796404 -111.977883 354 4235ft 17kts
23-Oct-20 10:42 40.801434 -111.978265 353 4235ft 19kts
23-Oct-20 10:43 40.806758 -111.979104 354 4235ft 17kts
23-Oct-20 10:44 40.807437 -111.977517 112 4235ft 6kts
23-Oct-20 10:45 40.804317 -111.976484 174 4235ft 69kts
23-Oct-20 10:46 40.758123 -111.974303 196 5093ft 221kts
23-Oct-20 10:47 40.759560 -112.045139 307 7215ft 256kts
23-Oct-20 10:48 40.804252 -112.121281 307 9892ft 268kts
23-Oct-20 10:49 40.847607 -112.201453 290 10208ft 283kts
23-Oct-20 10:50 40.902377 -112.277131 322 13852ft 276kts
23-Oct-20 10:51 40.965724 -112.333186 321 16933ft 276kts
23-Oct-20 10:52 41.030306 -112.390687 320 19545ft 284kts
23-Oct-20 10:53 41.097569 -112.449266 322 21753ft 301kts
23-Oct-20 10:54 41.175482 -112.515016 321 22475ft 359kts
23-Oct-20 10:55 41.259687 -112.601228 318 23236ft 401kts
23-Oct-20 10:56 41.338227 -112.707474 309 24999ft 405kts
23-Oct-20 10:57 41.414545 -112.819908 307 26593ft 412kts
23-Oct-20 10:58 41.489933 -112.935838 307 28004ft 417kts
23-Oct-20 10:59 41.566453 -113.053866 306 29513ft 417kts
23-Oct-20 11:00 41.641519 -113.169822 306 31246ft 409kts
23-Oct-20 11:01 41.716071 -113.284070 305 32670ft 406kts
23-Oct-20 11:02 41.789861 -113.398640 305 33983ft 402kts
23-Oct-20 11:03 41.862677 -113.512141 306 35163ft 401kts
23-Oct-20 11:04 41.935427 -113.625986 306 36272ft 399kts
23-Oct-20 11:05 42.008098 -113.739491 306 36297ft 399kts
23-Oct-20 11:06 42.080120 -113.853384 306 36293ft 399kts
23-Oct-20 11:07 42.151985 -113.967437 305 36292ft 399kts
23-Oct-20 11:08 42.224000 -114.081613 306 36291ft 398kts
23-Oct-20 11:09 42.296211 -114.195622 306 36268ft 399kts
23-Oct-20 11:10 42.368009 -114.309884 306 36259ft 399kts
23-Oct-20 11:11 42.439707 -114.424914 307 36260ft 399kts
23-Oct-20 11:12 42.511656 -114.538970 309 36258ft 399kts
23-Oct-20 11:13 42.584973 -114.652454 309 36266ft 400kts
23-Oct-20 11:14 42.657903 -114.766205 309 36270ft 399kts
23-Oct-20 11:15 42.730847 -114.879703 310 36273ft 399kts
23-Oct-20 11:16 42.804212 -114.993825 310 36277ft 399kts
23-Oct-20 11:17 42.876858 -115.107847 310 36277ft 399kts
23-Oct-20 11:18 42.949560 -115.222503 311 36272ft 398kts
23-Oct-20 11:19 43.021980 -115.337195 311 36273ft 398kts
23-Oct-20 11:20 43.094149 -115.451945 311 36266ft 397kts
23-Oct-20 11:21 43.166171 -115.566931 311 36264ft 397kts
23-Oct-20 11:22 43.237582 -115.681381 311 36264ft 395kts
23-Oct-20 11:23 43.309015 -115.796327 311 36265ft 394kts
23-Oct-20 11:24 43.380102 -115.910464 312 36263ft 393kts
23-Oct-20 11:25 43.450801 -116.025381 312 36267ft 393kts
23-Oct-20 11:26 43.521252 -116.140488 312 36269ft 392kts
23-Oct-20 11:27 43.603242 -116.237531 326 36270ft 389kts
23-Oct-20 11:28 43.692754 -116.320793 326 36263ft 388kts
23-Oct-20 11:29 43.782791 -116.404186 326 36260ft 388kts
23-Oct-20 11:30 43.872752 -116.486931 326 36260ft 388kts
23-Oct-20 11:31 43.962737 -116.570384 326 36271ft 389kts
23-Oct-20 11:32 44.052448 -116.654341 326 36278ft 384kts
23-Oct-20 11:33 44.136968 -116.744026 318 36275ft 385kts
23-Oct-20 11:34 44.213576 -116.847974 318 36272ft 383kts
23-Oct-20 11:35 44.289978 -116.952244 317 36273ft 383kts
23-Oct-20 11:36 44.366014 -117.056196 318 36262ft 383kts
23-Oct-20 11:37 44.442596 -117.160051 317 36244ft 382kts
23-Oct-20 11:38 44.518579 -117.264205 317 36226ft 382kts
23-Oct-20 11:39 44.594403 -117.368704 317 36209ft 382kts
23-Oct-20 11:40 44.670187 -117.473591 317 36195ft 382kts
23-Oct-20 11:41 44.745651 -117.578456 317 36186ft 381kts
23-Oct-20 11:42 44.820918 -117.683453 317 36181ft 380kts
23-Oct-20 11:43 44.895988 -117.788570 317 36179ft 379kts
23-Oct-20 11:44 44.970426 -117.893256 317 36183ft 377kts
23-Oct-20 11:45 45.044555 -117.997866 318 36171ft 376kts
23-Oct-20 11:46 45.118783 -118.102989 317 36157ft 376kts
23-Oct-20 11:47 45.192195 -118.207457 317 36147ft 375kts
23-Oct-20 11:48 45.265689 -118.312350 317 36148ft 373kts
23-Oct-20 11:49 45.339004 -118.417477 316 36134ft 373kts
23-Oct-20 11:51 45.411797 -118.522226 316 36119ft 373kts
23-Oct-20 11:52 45.484871 -118.627445 317 36106ft 373kts
23-Oct-20 11:53 45.557710 -118.732808 316 36101ft 373kts
23-Oct-20 11:54 45.630165 -118.838735 316 36088ft 373kts
23-Oct-20 11:55 45.702999 -118.945665 315 36092ft 374kts
23-Oct-20 11:56 45.770542 -119.059814 313 36090ft 376kts
23-Oct-20 11:57 45.837404 -119.174026 313 36111ft 376kts
23-Oct-20 11:58 45.905078 -119.289525 313 36108ft 376kts
23-Oct-20 11:59 45.972970 -119.404381 313 36105ft 376kts
23-Oct-20 12:00 46.040002 -119.518148 312 36093ft 372kts
23-Oct-20 12:01 46.107105 -119.634002 312 36084ft 374kts
23-Oct-20 12:02 46.173671 -119.749371 312 36082ft 375kts
23-Oct-20 12:03 46.239749 -119.863850 312 36084ft 374kts
23-Oct-20 12:04 46.306733 -119.980778 312 36078ft 374kts
23-Oct-20 12:05 46.373305 -120.097069 313 36065ft 371kts
23-Oct-20 12:05 46.428138 -120.192658 312 35866ft 373kts
23-Oct-20 12:07 46.502788 -120.324815 313 33873ft 354kts
23-Oct-20 12:08 46.563937 -120.433377 312 32132ft 340kts
23-Oct-20 12:08 46.609479 -120.525408 307 30757ft 331kts
23-Oct-20 12:10 46.669527 -120.651243 307 28892ft 319kts
23-Oct-20 12:10 46.711222 -120.739251 306 27577ft 311kts
23-Oct-20 12:11 46.759588 -120.841843 306 26060ft 302kts
23-Oct-20 12:12 46.806458 -120.941375 305 24577ft 293kts
23-Oct-20 12:13 46.852062 -121.038553 305 23123ft 286kts
23-Oct-20 12:14 46.897808 -121.136052 305 21230ft 291kts
23-Oct-20 12:15 46.943221 -121.232174 303 19775ft 283kts
23-Oct-20 12:16 46.986836 -121.326225 303 18379ft 275kts
23-Oct-20 12:17 47.029472 -121.418579 302 16963ft 270kts
23-Oct-20 12:18 47.070945 -121.508493 302 15944ft 254kts
23-Oct-20 12:19 47.110353 -121.593406 302 15920ft 240kts
23-Oct-20 12:20 47.145887 -121.670952 301 14882ft 220kts
23-Oct-20 12:21 47.177820 -121.740916 300 13839ft 205kts
23-Oct-20 12:22 47.209300 -121.809928 300 13043ft 207kts
23-Oct-20 12:23 47.241535 -121.879784 300 12243ft 203kts
23-Oct-20 12:24 47.272015 -121.946915 299 11515ft 205kts
23-Oct-20 12:25 47.304043 -122.017834 298 10873ft 209kts
23-Oct-20 12:26 47.336470 -122.089970 297 10372ft 213kts
23-Oct-20 12:27 47.379854 -122.148441 355 9546ft 257kts
23-Oct-20 12:28 47.452951 -122.124694 7 8069ft 270kts
23-Oct-20 12:29 47.525658 -122.107546 3 6565ft 260kts
23-Oct-20 12:30 47.594722 -122.096598 3 6004ft 255kts
23-Oct-20 12:31 47.666292 -122.086057 3 5997ft 259kts
23-Oct-20 12:32 47.727490 -122.113153 299 6013ft 233kts
23-Oct-20 12:33 47.763067 -122.185243 297 5969ft 207kts
23-Oct-20 12:34 47.776056 -122.257532 247 5993ft 178kts
23-Oct-20 12:35 47.747322 -122.303801 187 5919ft 157kts
23-Oct-20 12:36 47.709061 -122.305406 183 5151ft 131kts
23-Oct-20 12:37 47.671900 -122.305926 180 4447ft 135kts
23-Oct-20 12:38 47.634055 -122.306292 178 3723ft 137kts
23-Oct-20 12:39 47.595592 -122.306636 176 2988ft 139kts
23-Oct-20 12:40 47.555730 -122.306990 176 2223ft 141kts
23-Oct-20 12:41 47.515805 -122.307333 177 1466ft 145kts
23-Oct-20 12:42 47.476006 -122.307683 179 704ft 141kts
23-Oct-20 12:43 47.447597 -122.307807 180 441ft 11kts
23-Oct-20 12:44 47.445818 -122.306682 128 441ft 7kts
23-Oct-20 12:45 47.443958 -122.306323 178 441ft 4kts
23-Oct-20 12:46 47.443101 -122.305207 100 441ft 4kts
23-Oct-20 12:47 47.442636 -122.304050 135 441ft 0kts
23-Oct-20 12:48 47.442634 -122.304048 135 441ft 0kts
23-Oct-20 12:49 47.442084 -122.303038 290 441ft 0kts
23-Oct-20 12:50 47.442085 -122.303040 290 441ft 0kts
23-Oct-20 12:51 47.442085 -122.303042 290 441ft 0kts
23-Oct-20 12:52 47.442086 -122.303044 290 441ft 0kts
23-Oct-20 12:53 47.442086 -122.303044 290 441ft 0kts
23-Oct-20 12:54 47.442086 -122.303044 290 441ft 0kts
23-Oct-20 12:55 47.442086 -122.303044 290 441ft 0kts
23-Oct-20 12:56 47.442086 -122.303044 290 441ft 0kts
23-Oct-20 12:57 47.442086 -122.303044 290 441ft 0kts

Navigation Log

Ident Type
Flight plan parsing failed, navigation log unavailable